createdAt,value
2022-08-18T00:01:36.861Z,0.50
2022-08-18T00:04:27.819Z,0.80
2022-08-18T00:06:54.463Z,0.70
2022-08-18T00:09:21.967Z,0.60
2022-08-18T00:11:49.192Z,0.50
2022-08-18T00:14:22.173Z,0.60
2022-08-18T00:16:52.844Z,0.60
2022-08-18T00:19:20.808Z,0.70
2022-08-18T00:22:08.921Z,0.70
2022-08-18T00:24:48.477Z,0.60
2022-08-18T00:27:23.938Z,0.63
2022-08-18T00:29:58.499Z,0.75
2022-08-18T00:32:35.062Z,0.60
2022-08-18T00:35:21.831Z,0.70
2022-08-18T00:37:49.441Z,0.60
2022-08-18T00:40:22.735Z,0.50
2022-08-18T00:42:58.193Z,0.65
2022-08-18T00:45:33.065Z,0.65
2022-08-18T00:48:00.954Z,0.88
2022-08-18T00:50:34.826Z,0.60
2022-08-18T00:53:29.548Z,0.68
2022-08-18T00:56:03.283Z,0.63
2022-08-18T00:58:40.273Z,0.77
2022-08-18T01:01:09.845Z,0.60
2022-08-18T01:03:40.072Z,1.30
2022-08-18T01:06:23.835Z,1.10
2022-08-18T01:08:51.277Z,0.98
2022-08-18T01:11:18.445Z,0.60
2022-08-18T01:13:45.875Z,0.80
2022-08-18T01:16:32.264Z,0.60
2022-08-18T01:19:17.695Z,0.65
2022-08-18T01:21:51.212Z,0.82
2022-08-18T01:24:47.042Z,0.70
2022-08-18T01:27:18.403Z,0.70
2022-08-18T01:29:47.351Z,0.98
2022-08-18T01:32:23.377Z,0.57
2022-08-18T01:34:52.651Z,0.85
2022-08-18T01:37:23.362Z,0.70
2022-08-18T01:41:17.227Z,0.90
2022-08-18T01:42:39.888Z,0.70
2022-08-18T01:45:08.331Z,0.63
2022-08-18T01:47:47.595Z,0.57
2022-08-18T01:50:17.434Z,0.57
2022-08-18T01:52:44.711Z,0.60
2022-08-18T01:55:12.022Z,0.50
2022-08-18T01:57:45.403Z,0.60
2022-08-18T02:00:16.448Z,0.60
2022-08-18T02:02:44.034Z,0.50
2022-08-18T02:05:15.266Z,0.70
2022-08-18T02:07:42.695Z,0.70
2022-08-18T02:10:16.265Z,0.50
2022-08-18T02:12:44.671Z,0.88
2022-08-18T02:15:12.683Z,0.47
2022-08-18T02:17:42.118Z,0.60
2022-08-18T02:20:12.084Z,0.50
2022-08-18T02:22:39.665Z,0.57
2022-08-18T02:25:07.968Z,0.50
2022-08-18T02:27:35.348Z,0.60
2022-08-18T02:30:06.366Z,0.57
2022-08-18T02:32:34.043Z,0.60
2022-08-18T02:35:02.504Z,1.00
2022-08-18T02:37:33.799Z,0.60
2022-08-18T02:40:01.007Z,0.88
2022-08-18T02:42:29.395Z,0.50
2022-08-18T02:44:57.913Z,0.52
2022-08-18T02:47:28.156Z,0.60
2022-08-18T02:49:58.075Z,0.50
2022-08-18T02:52:32.798Z,0.80
2022-08-18T02:55:04.182Z,0.60
2022-08-18T02:57:32.225Z,0.52
2022-08-18T03:00:00.500Z,0.75
2022-08-18T03:02:28.235Z,0.40
2022-08-18T03:04:55.515Z,0.80
2022-08-18T03:07:22.973Z,0.80
2022-08-18T03:09:50.265Z,0.75
2022-08-18T03:12:18.034Z,0.60
2022-08-18T03:14:46.827Z,0.90
2022-08-18T03:17:15.147Z,0.70
2022-08-18T03:19:45.218Z,0.80
2022-08-18T03:22:28.231Z,0.70
2022-08-18T03:24:58.274Z,0.50
2022-08-18T03:27:26.725Z,0.90
2022-08-18T03:29:54.087Z,0.60
2022-08-18T03:32:21.410Z,0.60
2022-08-18T03:34:48.841Z,0.60
2022-08-18T03:37:16.279Z,0.55
2022-08-18T03:39:43.600Z,0.60
2022-08-18T03:42:11.009Z,0.63
2022-08-18T03:44:38.199Z,0.50
2022-08-18T03:47:12.057Z,0.50
2022-08-18T03:49:39.458Z,0.70
2022-08-18T03:52:10.005Z,0.45
2022-08-18T03:54:39.324Z,0.68
2022-08-18T03:57:11.161Z,0.60
2022-08-18T03:59:41.855Z,0.57
2022-08-18T04:02:09.599Z,0.50
2022-08-18T04:04:37.428Z,0.73
2022-08-18T04:07:14.427Z,0.70
2022-08-18T04:09:43.078Z,1.20
2022-08-18T04:12:16.561Z,0.70
2022-08-18T04:14:48.625Z,1.15
2022-08-18T04:17:25.201Z,0.85
2022-08-18T04:19:54.587Z,0.85
2022-08-18T04:22:22.840Z,0.60
2022-08-18T04:24:53.201Z,0.80
2022-08-18T04:27:22.254Z,0.80
2022-08-18T04:29:50.021Z,0.70
2022-08-18T04:32:17.724Z,0.70
2022-08-18T04:34:45.271Z,0.82
2022-08-18T04:37:13.565Z,0.98
2022-08-18T04:39:41.057Z,0.77
2022-08-18T04:42:08.667Z,1.33
2022-08-18T04:44:37.991Z,1.02
2022-08-18T04:47:09.197Z,1.85
2022-08-18T04:49:37.526Z,1.58
2022-08-18T04:52:39.346Z,1.08
2022-08-18T04:55:09.848Z,1.10
2022-08-18T04:57:37.134Z,1.38
2022-08-18T05:00:06.858Z,1.30
2022-08-18T05:02:35.147Z,1.30
2022-08-18T05:05:04.124Z,1.13
2022-08-18T05:07:31.968Z,1.25
2022-08-18T05:09:59.260Z,1.15
2022-08-18T05:12:27.099Z,1.10
2022-08-18T05:14:57.135Z,1.00
2022-08-18T05:17:30.166Z,0.90
2022-08-18T05:20:02.123Z,1.08
2022-08-18T05:22:31.729Z,1.05
2022-08-18T05:25:00.289Z,0.82
2022-08-18T05:27:33.197Z,1.08
2022-08-18T05:30:00.529Z,1.10
2022-08-18T05:32:47.332Z,1.10
2022-08-18T05:35:21.274Z,0.73
2022-08-18T05:38:04.661Z,1.58
2022-08-18T05:40:32.274Z,1.33
2022-08-18T05:43:00.501Z,1.20
2022-08-18T05:45:28.134Z,0.90
2022-08-18T05:48:00.278Z,1.23
2022-08-18T05:50:29.628Z,1.55
2022-08-18T05:53:14.100Z,1.27
2022-08-18T05:56:23.111Z,1.08
2022-08-18T05:58:53.101Z,1.23
2022-08-18T06:01:25.865Z,1.65
2022-08-18T06:04:00.257Z,1.23
2022-08-18T06:06:30.769Z,1.17
2022-08-18T06:09:22.543Z,1.52
2022-08-18T06:11:54.003Z,1.73
2022-08-18T06:14:21.303Z,1.42
2022-08-18T06:17:03.497Z,1.40
2022-08-18T06:19:55.769Z,2.17
2022-08-18T06:22:52.133Z,1.88
2022-08-18T06:26:05.410Z,1.13
2022-08-18T06:28:52.805Z,1.00
2022-08-18T06:31:43.042Z,1.35
2022-08-18T06:34:33.018Z,1.40
2022-08-18T06:37:17.661Z,1.10
2022-08-18T06:39:48.379Z,1.10
2022-08-18T06:42:30.537Z,1.55
2022-08-18T06:45:08.583Z,1.35
2022-08-18T06:48:20.968Z,1.17
2022-08-18T06:50:53.598Z,1.52
2022-08-18T06:53:27.325Z,2.17
2022-08-18T06:55:56.570Z,1.20
2022-08-18T06:58:30.722Z,1.52
2022-08-18T07:01:05.836Z,1.35
2022-08-18T07:03:39.447Z,1.40
2022-08-18T07:06:21.519Z,0.98
2022-08-18T07:08:54.959Z,1.27
2022-08-18T07:11:34.047Z,1.40
2022-08-18T07:14:22.562Z,1.60
2022-08-18T07:16:59.299Z,1.60
2022-08-18T07:19:31.460Z,1.50
2022-08-18T07:22:01.756Z,1.30
2022-08-18T07:24:33.528Z,1.75
2022-08-18T07:27:08.597Z,1.20
2022-08-18T07:29:41.801Z,1.20
2022-08-18T07:32:20.964Z,1.35
2022-08-18T07:34:58.250Z,1.67
2022-08-18T07:37:35.362Z,1.15
2022-08-18T07:40:35.228Z,1.98
2022-08-18T07:43:08.829Z,1.73
2022-08-18T07:45:47.447Z,1.50
2022-08-18T07:48:40.124Z,1.40
2022-08-18T07:51:19.905Z,1.80
2022-08-18T07:54:04.845Z,1.48
2022-08-18T07:56:48.524Z,1.70
2022-08-18T07:59:37.155Z,1.85
2022-08-18T08:02:27.711Z,1.30
2022-08-18T08:05:10.084Z,2.08
2022-08-18T08:07:55.680Z,1.20
2022-08-18T08:10:39.015Z,2.70
2022-08-18T08:13:53.543Z,2.00
2022-08-18T08:16:22.841Z,1.98
2022-08-18T08:19:00.269Z,1.75
2022-08-18T08:21:37.236Z,1.33
2022-08-18T08:24:08.396Z,2.22
2022-08-18T08:26:41.440Z,1.73
2022-08-18T08:29:08.733Z,1.27
2022-08-18T08:32:02.017Z,1.35
2022-08-18T08:34:41.734Z,1.50
2022-08-18T08:37:18.125Z,1.52
2022-08-18T08:39:57.965Z,1.55
2022-08-18T08:42:56.080Z,1.55
2022-08-18T08:45:29.372Z,1.50
2022-08-18T08:48:08.754Z,1.15
2022-08-18T08:50:45.598Z,1.40
2022-08-18T08:53:26.972Z,1.65
2022-08-18T08:56:02.477Z,2.25
2022-08-18T08:58:34.725Z,1.60
2022-08-18T09:01:03.024Z,1.42
2022-08-18T09:03:53.589Z,1.27
2022-08-18T09:06:35.947Z,1.75
2022-08-18T09:09:26.368Z,1.30
2022-08-18T09:12:31.195Z,1.20
2022-08-18T09:15:38.247Z,1.65
2022-08-18T09:18:25.672Z,1.52
2022-08-18T09:20:59.152Z,1.88
2022-08-18T09:23:35.482Z,2.67
2022-08-18T09:26:39.527Z,2.10
2022-08-18T09:29:17.814Z,1.85
2022-08-18T09:31:47.321Z,1.83
2022-08-18T09:34:34.478Z,2.03
2022-08-18T09:37:11.200Z,1.40
2022-08-18T09:43:31.998Z,2.42
2022-08-18T09:46:04.703Z,1.52
2022-08-18T09:50:37.216Z,2.28
2022-08-18T09:51:39.933Z,1.70
2022-08-18T09:54:13.869Z,1.30
2022-08-18T09:57:03.868Z,1.63
2022-08-18T09:59:38.159Z,1.35
2022-08-18T10:05:31.219Z,2.00
2022-08-18T10:08:21.622Z,2.17
2022-08-18T10:14:27.506Z,1.50
2022-08-18T10:17:30.740Z,3.25
2022-08-18T10:20:25.992Z,1.67
2022-08-18T10:22:57.434Z,3.03
2022-08-18T10:25:41.940Z,1.98
2022-08-18T10:28:50.349Z,1.85
2022-08-18T10:31:24.051Z,2.10
2022-08-18T10:34:19.459Z,1.98
2022-08-18T10:36:59.552Z,2.17
2022-08-18T10:42:33.907Z,1.95
2022-08-18T10:45:16.046Z,1.92
2022-08-18T10:48:16.666Z,2.03
2022-08-18T10:51:05.747Z,2.25
2022-08-18T10:56:40.870Z,2.35
2022-08-18T11:02:41.737Z,2.42
2022-08-18T11:05:12.243Z,1.58
2022-08-18T11:07:44.830Z,3.25
2022-08-18T11:10:32.376Z,3.35
2022-08-18T11:13:31.571Z,2.85
2022-08-18T11:16:14.125Z,2.28
2022-08-18T11:18:46.037Z,3.67
2022-08-18T11:24:32.794Z,2.67
2022-08-18T11:27:04.627Z,3.47
2022-08-18T11:29:43.245Z,2.65
2022-08-18T11:32:32.668Z,2.97
2022-08-18T11:35:11.233Z,3.20
2022-08-18T11:37:51.442Z,3.30
2022-08-18T11:43:41.727Z,2.28
2022-08-18T11:46:39.041Z,1.67
2022-08-18T11:49:24.343Z,2.45
2022-08-18T11:52:26.243Z,1.85
2022-08-18T11:55:23.869Z,1.95
2022-08-18T11:57:58.536Z,1.70
2022-08-18T12:00:42.404Z,1.92
2022-08-18T12:03:45.518Z,2.95
2022-08-18T12:06:21.746Z,2.00
2022-08-18T12:09:05.625Z,2.53
2022-08-18T12:11:37.143Z,2.58
2022-08-18T12:14:32.667Z,1.90
2022-08-18T12:17:03.043Z,2.97
2022-08-18T12:19:34.338Z,2.60
2022-08-18T12:22:13.800Z,2.47
2022-08-18T12:24:42.469Z,3.92
2022-08-18T12:27:20.885Z,3.47
2022-08-18T12:29:50.724Z,3.58
2022-08-18T12:32:47.115Z,2.80
2022-08-18T12:35:09.195Z,3.53
2022-08-18T12:40:26.418Z,4.00
2022-08-18T12:42:56.082Z,2.53
2022-08-18T12:45:25.944Z,3.25
2022-08-18T12:47:54.623Z,2.55
2022-08-18T12:50:31.802Z,4.05
2022-08-18T12:53:00.872Z,3.22
2022-08-18T12:55:31.867Z,3.08
2022-08-18T12:57:59.240Z,2.25
2022-08-18T13:03:14.801Z,2.80
2022-08-18T13:05:42.047Z,3.90
2022-08-18T13:08:30.428Z,2.53
2022-08-18T13:11:15.082Z,2.95
2022-08-18T13:13:52.753Z,3.22
2022-08-18T13:16:30.521Z,2.47
2022-08-18T13:18:58.603Z,2.30
2022-08-18T13:21:26.828Z,2.40
2022-08-18T13:24:06.843Z,2.65
2022-08-18T13:26:41.613Z,2.50
2022-08-18T13:29:10.441Z,2.70
2022-08-18T13:31:39.013Z,2.55
2022-08-18T13:34:11.801Z,1.73
2022-08-18T13:36:46.136Z,2.33
2022-08-18T13:39:19.205Z,3.38
2022-08-18T13:41:48.869Z,2.80
2022-08-18T13:44:19.702Z,2.33
2022-08-18T13:46:48.735Z,2.58
2022-08-18T13:49:18.548Z,3.10
2022-08-18T13:51:55.522Z,2.08
2022-08-18T13:54:31.214Z,2.10
2022-08-18T13:57:00.247Z,2.22
2022-08-18T13:59:31.812Z,2.05
2022-08-18T14:02:02.449Z,2.35
2022-08-18T14:04:30.212Z,2.03
2022-08-18T14:06:59.965Z,3.33
2022-08-18T14:09:36.528Z,3.03
2022-08-18T14:12:27.010Z,1.70
2022-08-18T14:14:57.540Z,1.73
2022-08-18T14:17:26.459Z,1.67
2022-08-18T14:20:15.545Z,2.70
2022-08-18T14:23:10.414Z,1.73
2022-08-18T14:25:56.640Z,1.92
2022-08-18T14:28:28.452Z,1.65
2022-08-18T14:31:00.820Z,2.60
2022-08-18T14:33:49.377Z,1.60
2022-08-18T14:36:18.305Z,2.13
2022-08-18T14:38:45.585Z,2.10
2022-08-18T14:41:14.891Z,2.22
2022-08-18T14:43:53.891Z,1.95
2022-08-18T14:46:33.287Z,1.80
2022-08-18T14:49:03.931Z,1.58
2022-08-18T14:51:33.608Z,3.30
2022-08-18T14:54:02.432Z,2.55
2022-08-18T14:56:33.326Z,1.95
2022-08-18T14:59:01.111Z,3.22
2022-08-18T15:01:34.708Z,2.10
2022-08-18T15:04:18.764Z,1.80
2022-08-18T15:06:56.102Z,1.65
2022-08-18T15:09:30.190Z,2.03
2022-08-18T15:11:59.306Z,1.80
2022-08-18T15:14:33.082Z,1.80
2022-08-18T15:17:11.624Z,1.50
2022-08-18T15:19:59.193Z,2.00
2022-08-18T15:22:47.795Z,1.75
2022-08-18T15:25:34.327Z,1.30
2022-08-18T15:28:02.200Z,1.77
2022-08-18T15:30:29.679Z,1.77
2022-08-18T15:32:57.894Z,1.70
2022-08-18T15:35:25.844Z,2.78
2022-08-18T15:37:54.964Z,1.45
2022-08-18T15:40:30.784Z,1.95
2022-08-18T15:43:03.730Z,1.50
2022-08-18T15:45:37.849Z,1.73
2022-08-18T15:48:12.565Z,1.30
2022-08-18T15:50:40.447Z,1.60
2022-08-18T15:53:12.203Z,1.25
2022-08-18T15:55:41.686Z,1.55
2022-08-18T15:58:12.878Z,1.85
2022-08-18T16:00:43.699Z,1.20
2022-08-18T16:03:14.560Z,1.00
2022-08-18T16:05:52.514Z,0.93
2022-08-18T16:08:23.648Z,1.40
2022-08-18T16:10:52.654Z,1.25
2022-08-18T16:13:20.075Z,1.67
2022-08-18T16:15:50.080Z,1.35
2022-08-18T16:18:21.181Z,1.13
2022-08-18T16:20:50.663Z,0.82
2022-08-18T16:23:20.423Z,0.90
2022-08-18T16:25:47.571Z,1.13
2022-08-18T16:28:14.896Z,1.35
2022-08-18T16:30:42.533Z,1.75
2022-08-18T16:33:09.834Z,1.15
2022-08-18T16:35:37.618Z,1.30
2022-08-18T16:38:09.680Z,1.42
2022-08-18T16:40:38.057Z,1.42
2022-08-18T16:43:06.030Z,1.17
2022-08-18T16:45:36.096Z,1.10
2022-08-18T16:48:04.036Z,0.82
2022-08-18T16:50:31.361Z,1.23
2022-08-18T16:52:58.648Z,1.30
2022-08-18T16:55:25.984Z,1.15
2022-08-18T16:58:15.502Z,1.15
2022-08-18T17:01:01.976Z,1.30
2022-08-18T17:03:48.029Z,1.10
2022-08-18T17:06:18.704Z,0.70
2022-08-18T17:08:46.318Z,0.85
2022-08-18T17:11:17.057Z,1.00
2022-08-18T17:13:45.598Z,0.70
2022-08-18T17:16:12.984Z,1.00
2022-08-18T17:18:41.115Z,0.93
2022-08-18T17:21:11.014Z,1.08
2022-08-18T17:23:39.264Z,1.38
2022-08-18T17:26:17.766Z,0.90
2022-08-18T17:28:53.842Z,0.82
2022-08-18T17:31:24.676Z,0.77
2022-08-18T17:33:55.479Z,0.80
2022-08-18T17:36:31.112Z,0.80
2022-08-18T17:39:01.730Z,0.70
2022-08-18T17:41:29.265Z,1.05
2022-08-18T17:44:00.908Z,0.70
2022-08-18T17:46:38.412Z,0.70
2022-08-18T17:49:13.151Z,0.90
2022-08-18T17:51:52.638Z,0.70
2022-08-18T17:54:39.313Z,0.60
2022-08-18T17:57:29.965Z,0.60
2022-08-18T18:00:11.289Z,0.40
2022-08-18T18:02:45.269Z,0.60
2022-08-18T18:05:16.011Z,0.68
2022-08-18T18:07:52.352Z,0.60
2022-08-18T18:11:02.254Z,0.50
2022-08-18T18:13:32.687Z,0.50
2022-08-18T18:16:37.175Z,0.50
2022-08-18T18:19:12.665Z,0.82
2022-08-18T18:22:00.813Z,0.50
2022-08-18T18:24:37.404Z,0.70
2022-08-18T18:27:23.530Z,0.57
2022-08-18T18:30:16.906Z,0.40
2022-08-18T18:33:02.854Z,0.52
2022-08-18T18:35:53.463Z,0.60
2022-08-18T18:38:37.960Z,0.80
2022-08-18T18:41:18.255Z,0.45
2022-08-18T18:43:47.596Z,0.52
2022-08-18T18:46:23.348Z,0.45
2022-08-18T18:48:59.471Z,0.70
2022-08-18T18:51:39.119Z,0.68
2022-08-18T18:54:49.596Z,0.70
2022-08-18T18:57:32.306Z,0.63
2022-08-18T19:00:33.353Z,0.68
2022-08-18T19:03:18.148Z,0.70
2022-08-18T19:06:07.485Z,0.47
2022-08-18T19:09:12.759Z,0.60
2022-08-18T19:12:12.385Z,0.60
2022-08-18T19:14:59.708Z,0.68
2022-08-18T19:17:42.591Z,0.50
2022-08-18T19:20:19.294Z,0.63
2022-08-18T19:23:34.006Z,0.40
2022-08-18T19:26:17.507Z,0.40
2022-08-18T19:29:01.226Z,0.50
2022-08-18T19:31:48.161Z,0.50
2022-08-18T19:34:30.201Z,0.50
2022-08-18T19:37:36.506Z,0.73
2022-08-18T19:40:27.473Z,0.88
2022-08-18T19:43:12.874Z,0.98
2022-08-18T19:45:50.296Z,0.50
2022-08-18T19:49:08.953Z,0.80
2022-08-18T19:51:40.134Z,0.68
2022-08-18T19:54:25.311Z,0.60
2022-08-18T19:57:09.553Z,0.60
2022-08-18T20:00:05.033Z,0.50
2022-08-18T20:02:49.143Z,0.75
2022-08-18T20:05:25.811Z,0.70
2022-08-18T20:08:05.516Z,0.80
2022-08-18T20:10:38.650Z,0.60
2022-08-18T20:13:24.195Z,0.60
2022-08-18T20:16:10.642Z,0.73
2022-08-18T20:18:49.935Z,0.80
2022-08-18T20:21:17.439Z,0.80
2022-08-18T20:23:56.978Z,0.85
2022-08-18T20:26:40.187Z,1.48
2022-08-18T20:29:30.498Z,0.73
2022-08-18T20:32:04.891Z,0.70
2022-08-18T20:34:35.269Z,0.63
2022-08-18T20:37:10.751Z,0.88
2022-08-18T20:39:46.543Z,0.77
2022-08-18T20:42:23.148Z,0.82
2022-08-18T20:44:54.593Z,0.77
2022-08-18T20:47:42.123Z,0.55
2022-08-18T20:50:44.819Z,0.52
2022-08-18T20:53:41.303Z,0.65
2022-08-18T20:56:46.466Z,1.00
2022-08-18T20:59:29.442Z,0.57
2022-08-18T21:02:03.962Z,0.65
2022-08-18T21:04:54.244Z,0.50
2022-08-18T21:07:38.154Z,0.60
2022-08-18T21:10:24.455Z,0.70
2022-08-18T21:12:54.926Z,1.30
2022-08-18T21:15:26.427Z,0.75
2022-08-18T21:18:21.068Z,0.98
2022-08-18T21:20:50.409Z,1.00
2022-08-18T21:23:25.352Z,0.93
2022-08-18T21:25:57.175Z,0.98
2022-08-18T21:28:28.064Z,0.77
2022-08-18T21:31:42.634Z,0.90
2022-08-18T21:33:58.960Z,0.90
2022-08-18T21:36:32.129Z,0.73
2022-08-18T21:39:07.716Z,0.50
2022-08-18T21:41:48.495Z,0.98
2022-08-18T21:44:20.845Z,0.70
2022-08-18T21:46:48.741Z,1.27
2022-08-18T21:49:28.218Z,0.70
2022-08-18T21:51:55.704Z,0.88
2022-08-18T21:54:28.647Z,0.55
2022-08-18T21:57:22.473Z,0.88
2022-08-18T22:00:20.381Z,0.80
2022-08-18T22:02:51.416Z,0.68
2022-08-18T22:05:55.845Z,1.20
2022-08-18T22:08:23.228Z,0.93
2022-08-18T22:11:43.551Z,0.80
2022-08-18T22:14:54.514Z,0.63
2022-08-18T22:17:43.232Z,0.50
2022-08-18T22:20:33.397Z,1.38
2022-08-18T22:23:31.837Z,1.02
2022-08-18T22:26:24.233Z,1.08
2022-08-18T22:29:06.692Z,0.80
2022-08-18T22:31:44.554Z,0.60
2022-08-18T22:34:27.449Z,1.20
2022-08-18T22:37:19.250Z,0.63
2022-08-18T22:39:51.552Z,0.60
2022-08-18T22:42:21.131Z,0.80
2022-08-18T22:44:49.061Z,0.70
2022-08-18T22:47:16.752Z,0.40
2022-08-18T22:49:45.359Z,0.50
2022-08-18T22:52:29.617Z,0.47
2022-08-18T22:55:03.294Z,0.30
2022-08-18T22:57:38.577Z,0.50
2022-08-18T23:00:15.273Z,0.40
2022-08-18T23:02:43.172Z,0.30
2022-08-18T23:05:11.246Z,0.50
2022-08-18T23:07:38.744Z,0.40
2022-08-18T23:10:13.765Z,0.40
2022-08-18T23:12:43.276Z,0.40
2022-08-18T23:15:11.853Z,0.45
2022-08-18T23:17:40.928Z,0.43
2022-08-18T23:20:12.296Z,0.50
2022-08-18T23:22:45.775Z,0.93
2022-08-18T23:25:13.606Z,0.45
2022-08-18T23:27:43.157Z,0.40
2022-08-18T23:30:14.331Z,0.50
2022-08-18T23:32:41.616Z,0.50
2022-08-18T23:35:08.891Z,0.40
2022-08-18T23:37:36.089Z,0.30
2022-08-18T23:40:03.931Z,0.40
2022-08-18T23:42:31.668Z,0.43
2022-08-18T23:45:03.170Z,0.68
2022-08-18T23:47:30.630Z,0.40
2022-08-18T23:49:57.951Z,0.47
2022-08-18T23:52:25.211Z,0.60
2022-08-18T23:54:52.638Z,0.50
2022-08-18T23:57:19.867Z,0.70
2022-08-18T23:59:47.175Z,0.77
